Time;durP1;ratioP1;P1;durP2;ratioP2;P2;SDS_P1;SDS_P2;PMS_P1;PMS_P2;Temp;Humidity;BMP_temperature;BMP_pressure;BME280_temperature;BME280_humidity;BME280_pressure;Samples;Min_cycle;Max_cycle;Signal;HPM_P1;HPM_P2
2023/07/02 00:01:31;;;;;;;1999.90;999.90;;;;;;;18.62;100.00;97176.81;5092370;28;20024;-78
2023/07/02 00:03:56;;;;;;;1999.90;999.90;;;;;;;18.66;100.00;97175.72;5093603;28;20024;-78
2023/07/02 00:06:22;;;;;;;1999.90;999.90;;;;;;;18.71;100.00;97177.38;5093242;28;20542;-76
2023/07/02 00:08:47;;;;;;;1999.90;999.90;;;;;;;18.72;100.00;97181.75;5093580;28;20030;-75
2023/07/02 00:11:15;;;;;;;1999.90;999.90;;;;;;;18.73;100.00;97184.13;5093344;28;20110;-76
2023/07/02 00:13:40;;;;;;;1999.90;999.90;;;;;;;18.70;100.00;97189.63;5093000;28;20028;-76
2023/07/02 00:16:06;;;;;;;1999.90;999.90;;;;;;;18.68;100.00;97183.63;5093452;28;20028;-75
2023/07/02 00:18:33;;;;;;;1999.90;999.90;;;;;;;18.62;100.00;97185.09;5092198;28;20060;-76
2023/07/02 00:21:02;;;;;;;1999.90;999.90;;;;;;;18.62;100.00;97179.56;5093570;28;20024;-77
2023/07/02 00:23:28;;;;;;;1999.90;999.90;;;;;;;18.56;100.00;97179.06;5092026;28;20020;-76
2023/07/02 00:25:53;;;;;;;1999.90;999.90;;;;;;;18.52;100.00;97177.38;5093366;28;20024;-76
2023/07/02 00:28:19;;;;;;;1999.90;999.90;;;;;;;18.42;100.00;97172.44;5092157;28;20028;-76
2023/07/02 00:30:44;;;;;;;1999.90;999.90;;;;;;;18.41;100.00;97171.63;5093341;28;20554;-76
2023/07/02 00:33:09;;;;;;;1999.90;999.90;;;;;;;18.44;100.00;97183.94;5092706;28;20135;-76
2023/07/02 00:35:35;;;;;;;1999.90;999.90;;;;;;;18.39;100.00;97179.47;5093229;28;20026;-78
2023/07/02 00:38:00;;;;;;;1999.90;999.90;;;;;;;18.40;100.00;97186.63;5093310;28;20058;-77
2023/07/02 00:40:27;;;;;;;1999.90;999.90;;;;;;;18.46;100.00;97184.34;5093352;28;20046;-78
2023/07/02 00:42:52;;;;;;;1999.90;999.90;;;;;;;18.44;100.00;97186.72;5093171;28;20392;-77
2023/07/02 00:45:18;;;;;;;1999.90;999.90;;;;;;;18.54;100.00;97189.69;5093157;28;20127;-78
2023/07/02 00:47:44;;;;;;;1999.90;999.90;;;;;;;18.56;100.00;97184.63;5093562;28;20044;-79
2023/07/02 00:50:11;;;;;;;1999.90;999.90;;;;;;;18.55;100.00;97193.28;5098719;28;20051;-78
2023/07/02 00:52:36;;;;;;;1999.90;999.90;;;;;;;18.52;100.00;97186.50;5096060;28;20020;-78
2023/07/02 00:55:02;;;;;;;1999.90;999.90;;;;;;;18.52;100.00;97191.25;5099764;28;20024;-78
2023/07/02 00:57:29;;;;;;;1999.90;999.90;;;;;;;18.52;100.00;97189.28;5095991;28;20477;-78
2023/07/02 00:59:56;;;;;;;1999.90;999.90;;;;;;;18.61;100.00;97191.81;5091600;28;20437;-79
2023/07/02 01:02:23;;;;;;;1999.90;999.90;;;;;;;18.55;100.00;97188.53;5093095;28;20024;-78
2023/07/02 01:04:49;;;;;;;1999.90;999.90;;;;;;;18.47;100.00;97191.50;5092943;28;20070;-76
2023/07/02 01:07:15;;;;;;;1999.90;999.90;;;;;;;18.47;100.00;97199.81;5092581;28;20417;-79
2023/07/02 01:09:40;;;;;;;1999.90;999.90;;;;;;;18.44;100.00;97187.50;5092517;28;20028;-77
2023/07/02 01:12:09;;;;;;;1999.90;999.90;;;;;;;18.52;100.00;97189.28;5092622;28;20016;-77
2023/07/02 01:14:43;;;;;;;1999.90;999.90;;;;;;;18.48;100.00;97187.59;5092541;28;20488;-79
2023/07/02 01:17:10;;;;;;;1999.90;999.90;;;;;;;18.39;100.00;97182.25;5090927;28;20020;-78
2023/07/02 01:19:52;;;;;;;1999.90;999.90;;;;;;;18.49;100.00;97187.22;5092298;28;20054;-77
2023/07/02 01:22:20;;;;;;;1999.90;999.90;;;;;;;18.52;100.00;97185.69;5090844;28;20508;-77
2023/07/02 01:24:49;;;;;;;1999.90;999.90;;;;;;;18.60;100.00;97187.47;5090836;28;20016;-76
2023/07/02 01:27:15;;;;;;;1999.90;999.90;;;;;;;18.71;100.00;97188.44;5092249;28;20519;-78
2023/07/02 01:29:41;;;;;;;1999.90;999.90;;;;;;;18.63;100.00;97170.09;5092148;28;20135;-78
2023/07/02 01:32:08;;;;;;;1999.90;999.90;;;;;;;18.65;100.00;97176.06;5092265;28;20031;-77
2023/07/02 01:34:34;;;;;;;1999.90;999.90;;;;;;;18.67;100.00;97182.03;5093081;28;20016;-77
2023/07/02 01:37:00;;;;;;;1999.90;999.90;;;;;;;18.65;100.00;97176.06;5092298;28;20077;-77
2023/07/02 01:39:25;;;;;;;1999.90;999.90;;;;;;;18.73;100.00;97188.91;5092023;28;20023;-78
2023/07/02 01:41:52;;;;;;;1999.90;999.90;;;;;;;18.76;100.00;97185.41;5091870;28;20392;-77
2023/07/02 01:44:18;;;;;;;1999.90;999.90;;;;;;;18.86;100.00;97186.75;5091871;28;20110;-78
2023/07/02 01:46:48;;;;;;;1999.90;999.90;;;;;;;18.91;100.00;97180.91;5090466;28;20361;-77
2023/07/02 01:49:14;;;;;;;1999.90;999.90;;;;;;;18.94;100.00;97175.44;5091830;28;20031;-78
2023/07/02 01:51:39;;;;;;;1999.90;999.90;;;;;;;19.01;100.00;97178.34;5091749;28;20020;-79
2023/07/02 01:54:05;;;;;;;1999.90;999.90;;;;;;;18.99;100.00;97183.44;5090302;28;20031;-78
2023/07/02 01:56:30;;;;;;;1999.90;999.90;;;;;;;19.00;100.00;97185.03;5090314;28;20128;-77
2023/07/02 01:58:56;;;;;;;1999.90;999.90;;;;;;;18.99;100.00;97182.63;5090505;28;20024;-80
2023/07/02 02:01:21;;;;;;;1999.90;999.90;;;;;;;18.92;100.00;97177.75;5091710;28;20492;-78
2023/07/02 02:03:46;;;;;;;1999.90;999.90;;;;;;;18.96;100.00;97188.91;5091909;28;20024;-78
2023/07/02 02:06:12;;;;;;;1999.90;999.90;;;;;;;18.92;100.00;97191.59;5090259;28;20495;-78
2023/07/02 02:08:37;;;;;;;1999.90;999.90;;;;;;;18.85;100.00;97188.72;5091622;28;20115;-78
2023/07/02 02:11:03;;;;;;;1999.90;999.90;;;;;;;18.90;100.00;97193.16;5090079;28;20490;-78
2023/07/02 02:13:28;;;;;;;1999.90;999.90;;;;;;;18.92;100.00;97199.94;5091435;28;20020;-79
2023/07/02 02:15:54;;;;;;;1999.90;999.90;;;;;;;18.94;100.00;97200.38;5091491;28;20074;-79
2023/07/02 02:18:19;;;;;;;1999.90;999.90;;;;;;;18.87;100.00;97180.84;5091220;28;20082;-78
2023/07/02 02:20:45;;;;;;;1999.90;999.90;;;;;;;18.89;100.00;97188.78;5091493;28;20095;-77
2023/07/02 02:23:11;;;;;;;1999.90;999.90;;;;;;;18.83;100.00;97188.28;5091047;28;20504;-79
2023/07/02 02:25:36;;;;;;;1999.90;999.90;;;;;;;18.86;100.00;97198.63;5091062;28;20048;-79
2023/07/02 02:28:01;;;;;;;1999.90;999.90;;;;;;;18.83;100.00;97193.81;5091218;28;20032;-79
2023/07/02 02:30:27;;;;;;;1999.90;999.90;;;;;;;18.79;100.00;97198.50;5091155;28;20115;-78
2023/07/02 02:32:52;;;;;;;1999.90;999.90;;;;;;;18.71;100.00;97194.00;5091561;28;20028;-78
2023/07/02 02:35:17;;;;;;;1999.90;999.90;;;;;;;18.76;100.00;97202.03;5091604;28;20062;-78
2023/07/02 02:37:43;;;;;;;1999.90;999.90;;;;;;;18.73;100.00;97189.69;5090529;28;20051;-78
2023/07/02 02:40:12;;;;;;;1999.90;999.90;;;;;;;18.75;100.00;97197.63;5091710;28;20024;-78
2023/07/02 02:42:38;;;;;;;1999.90;999.90;;;;;;;18.74;100.00;97201.56;5091717;28;20032;-78
2023/07/02 02:45:04;;;;;;;1999.90;999.90;;;;;;;18.72;100.00;97195.59;5091506;28;20036;-79
2023/07/02 02:47:30;;;;;;;1999.90;999.90;;;;;;;18.70;100.00;97195.19;5091132;28;20127;-78
2023/07/02 02:49:55;;;;;;;1999.90;999.90;;;;;;;18.73;100.00;97194.44;5090904;28;20035;-78
2023/07/02 02:52:20;;;;;;;1999.90;999.90;;;;;;;18.73;100.00;97200.00;5091006;28;20105;-79
2023/07/02 02:54:46;;;;;;;1999.90;999.90;;;;;;;18.66;100.00;97195.09;5089467;28;20020;-78
2023/07/02 02:57:12;;;;;;;1999.90;999.90;;;;;;;18.56;100.00;97192.91;5089377;28;20536;-80
2023/07/02 02:59:37;;;;;;;1999.90;999.90;;;;;;;18.50;100.00;97193.59;5090798;28;20012;-81
2023/07/02 03:02:03;;;;;;;1999.90;999.90;;;;;;;18.56;100.00;97200.44;5091333;28;20108;-79
2023/07/02 03:04:29;;;;;;;1999.90;999.90;;;;;;;18.64;100.00;97204.94;5099301;28;20032;-79
2023/07/02 03:06:55;;;;;;;1999.90;999.90;;;;;;;18.67;100.00;97206.97;5091792;28;20019;-78
2023/07/02 03:09:21;;;;;;;1999.90;999.90;;;;;;;18.66;100.00;97210.94;5089602;28;20035;-79
2023/07/02 03:11:47;;;;;;;1999.90;999.90;;;;;;;18.60;100.00;97212.38;5094248;28;20024;-79
2023/07/02 03:14:12;;;;;;;1999.90;999.90;;;;;;;18.59;100.00;97211.59;5098246;28;20016;-80
2023/07/02 03:16:38;;;;;;;1999.90;999.90;;;;;;;18.55;100.00;97220.97;5089886;28;20472;-79
2023/07/02 03:19:03;;;;;;;1999.90;999.90;;;;;;;18.48;100.00;97207.75;5090613;28;20020;-80
2023/07/02 03:21:29;;;;;;;1999.90;999.90;;;;;;;18.51;100.00;97220.91;5072512;28;20028;-78
2023/07/02 03:23:55;;;;;;;1999.90;999.90;;;;;;;18.49;100.00;97219.63;5090341;28;20082;-77
2023/07/02 03:26:21;;;;;;;1999.90;999.90;;;;;;;18.51;100.00;97226.44;5090509;28;20028;-78
2023/07/02 03:28:47;;;;;;;1999.90;999.90;;;;;;;18.46;100.00;97225.91;5090319;28;20028;-79
2023/07/02 03:31:12;;;;;;;1999.90;999.90;;;;;;;18.43;100.00;97223.88;5090308;28;20150;-78
2023/07/02 03:33:37;;;;;;;1999.90;999.90;;;;;;;18.46;100.00;97234.22;5090740;28;20043;-79
2023/07/02 03:36:03;;;;;;;1999.90;999.90;;;;;;;18.48;100.00;97229.13;5090480;28;20383;-78
2023/07/02 03:38:28;;;;;;;1999.90;999.90;;;;;;;18.53;100.00;97237.16;5090509;28;20039;-78
2023/07/02 03:40:54;;;;;;;1999.90;999.90;;;;;;;18.48;100.00;97234.69;5090364;28;20024;-79
2023/07/02 03:43:19;;;;;;;1999.90;999.90;;;;;;;18.45;100.00;97233.41;5089140;28;20027;-78
2023/07/02 03:45:44;;;;;;;1999.90;999.90;;;;;;;18.53;100.00;97239.94;5090315;28;20433;-78
2023/07/02 03:48:10;;;;;;;1999.90;999.90;;;;;;;18.46;100.00;97237.78;5088853;28;20046;-78
2023/07/02 03:50:35;;;;;;;1999.90;999.90;;;;;;;18.54;100.00;97242.34;5090211;28;20127;-77
2023/07/02 03:53:01;;;;;;;1999.90;999.90;;;;;;;18.56;100.00;97247.53;5086940;28;20078;-76
2023/07/02 03:55:26;;;;;;;1999.90;999.90;;;;;;;18.58;100.00;97242.41;5078465;28;20036;-77
2023/07/02 03:57:51;;;;;;;1999.90;999.90;;;;;;;18.60;100.00;97245.63;5088608;28;20488;-79
2023/07/02 04:00:17;;;;;;;1999.90;999.90;;;;;;;18.63;100.00;97251.25;5077003;28;20028;-80
2023/07/02 04:02:42;;;;;;;1999.90;999.90;;;;;;;18.60;100.00;97251.19;5069493;28;20020;-79
2023/07/02 04:05:08;;;;;;;1999.90;999.90;;;;;;;18.59;100.00;97249.56;5068847;28;20040;-77
2023/07/02 04:07:33;;;;;;;1999.90;999.90;;;;;;;18.62;100.00;97259.91;5070498;28;20064;-78
2023/07/02 04:09:59;;;;;;;1999.90;999.90;;;;;;;18.70;100.00;97253.38;5080303;28;20122;-77
2023/07/02 04:12:24;;;;;;;1999.90;999.90;;;;;;;18.86;100.00;97261.59;5093466;28;20103;-71
2023/07/02 04:14:50;;;;;;;1999.90;999.90;;;;;;;18.98;100.00;97264.97;5093388;28;20525;-72
2023/07/02 04:17:15;;;;;;;1999.90;999.90;;;;;;;19.05;100.00;97262.34;5098164;28;20092;-72
2023/07/02 04:19:41;;;;;;;1999.90;999.90;;;;;;;19.16;100.00;97274.47;5093702;28;20028;-72
2023/07/02 04:22:07;;;;;;;1999.90;999.90;;;;;;;19.37;100.00;97278.78;5109100;28;20515;-72
2023/07/02 04:24:33;;;;;;;1999.90;999.90;;;;;;;19.51;100.00;97279.06;5094626;28;20036;-72
2023/07/02 04:26:59;;;;;;;1999.90;999.90;;;;;;;20.92;100.00;97283.97;5093268;28;20158;-72
2023/07/02 04:29:25;;;;;;;1999.90;999.90;;;;;;;21.55;100.00;97297.00;5093338;28;20046;-73
2023/07/02 04:31:50;;;;;;;1999.90;999.90;;;;;;;21.27;100.00;97289.13;5092837;28;20028;-72
2023/07/02 04:34:15;;;;;;;1999.90;999.90;;;;;;;20.85;100.00;97292.22;5093393;28;20154;-72
2023/07/02 04:36:41;;;;;;;1999.90;999.90;;;;;;;20.94;100.00;97297.47;5092864;28;20028;-72
2023/07/02 04:39:08;;;;;;;1999.90;999.90;;;;;;;20.84;100.00;97290.59;5091802;28;20169;-73
2023/07/02 04:41:33;;;;;;;1999.90;999.90;;;;;;;20.81;100.00;97286.59;5092958;28;20020;-72
2023/07/02 04:43:59;;;;;;;1999.90;999.90;;;;;;;21.06;100.00;97291.66;5092820;28;20027;-72
2023/07/02 04:46:24;;;;;;;1999.90;999.90;;;;;;;21.09;100.00;97290.91;5092731;28;20457;-73
2023/07/02 04:48:50;;;;;;;1999.90;999.90;;;;;;;21.35;100.00;97307.50;5080620;28;20045;-72
2023/07/02 04:51:15;;;;;;;1999.90;999.90;;;;;;;21.15;100.00;97301.31;5072303;28;20111;-71
2023/07/02 04:53:41;;;;;;;1999.90;999.90;;;;;;;21.37;100.00;97305.13;5070932;28;20048;-71
2023/07/02 04:56:06;;;;;;;1999.90;999.90;;;;;;;20.81;100.00;97297.72;5072343;28;20115;-71
2023/07/02 04:58:31;;;;;;;1999.90;999.90;;;;;;;20.75;100.00;97301.22;5072330;28;20032;-72
2023/07/02 05:00:57;;;;;;;1999.90;999.90;;;;;;;20.63;100.00;97301.44;5070780;28;20091;-71
2023/07/02 05:03:22;;;;;;;1999.90;999.90;;;;;;;20.38;100.00;97300.31;5070790;28;20749;-71
2023/07/02 05:05:47;;;;;;;1999.90;999.90;;;;;;;20.30;100.00;97310.50;5072294;28;20096;-72
2023/07/02 05:08:13;;;;;;;1999.90;999.90;;;;;;;20.20;100.00;97313.91;5072045;28;20129;-71
2023/07/02 05:10:39;;;;;;;1999.90;999.90;;;;;;;19.85;100.00;97319.69;5073284;28;20488;-73
2023/07/02 05:13:04;;;;;;;1999.90;999.90;;;;;;;19.61;100.00;97320.06;5075736;28;20044;-71
2023/07/02 05:15:30;;;;;;;1999.90;999.90;;;;;;;19.43;100.00;97316.97;5071956;28;20028;-71
2023/07/02 05:17:55;;;;;;;1999.90;999.90;;;;;;;19.47;100.00;97328.94;5070389;28;20020;-71
2023/07/02 05:20:21;;;;;;;1999.90;999.90;;;;;;;19.60;100.00;97322.06;5071391;28;20048;-71
2023/07/02 05:22:46;;;;;;;1999.90;999.90;;;;;;;19.84;100.00;97315.31;5071672;28;20489;-71
2023/07/02 05:25:11;;;;;;;1999.90;999.90;;;;;;;20.00;100.00;97318.75;5071731;28;20062;-72
2023/07/02 05:27:37;;;;;;;1999.90;999.90;;;;;;;20.21;100.00;97327.41;5071622;28;20074;-71
2023/07/02 05:30:02;;;;;;;1999.90;999.90;;;;;;;20.36;100.00;97322.13;5071579;28;20492;-73
2023/07/02 05:32:28;;;;;;;1999.90;999.90;;;;;;;20.43;100.00;97324.97;5071373;28;20025;-72
2023/07/02 05:34:53;;;;;;;1999.90;999.90;;;;;;;20.56;100.00;97326.38;5072674;28;20106;-71
2023/07/02 05:37:19;;;;;;;1999.90;999.90;;;;;;;20.46;100.00;97327.81;5073105;28;20033;-73
2023/07/02 05:39:44;;;;;;;1999.90;999.90;;;;;;;20.49;100.00;97324.28;5072974;28;20104;-72
2023/07/02 05:42:09;;;;;;;1999.90;999.90;;;;;;;20.44;100.00;97327.41;5071495;28;20031;-72
2023/07/02 05:44:35;;;;;;;1999.90;999.90;;;;;;;20.33;100.00;97325.66;5071351;28;20112;-72
2023/07/02 05:47:00;;;;;;;1999.90;999.90;;;;;;;20.22;100.00;97323.47;5071075;28;20045;-72
2023/07/02 05:49:26;;;;;;;1999.90;999.90;;;;;;;20.43;100.00;97330.53;5087447;28;20380;-72
2023/07/02 05:51:52;;;;;;;1999.90;999.90;;;;;;;20.50;100.00;97337.00;5091299;28;20021;-72
2023/07/02 05:54:17;;;;;;;1999.90;999.90;;;;;;;20.56;100.00;97348.59;5091404;28;20039;-71
2023/07/02 05:56:42;;;;;;;1999.90;999.90;;;;;;;20.37;100.00;97348.72;5091268;28;20063;-72
2023/07/02 05:59:08;;;;;;;1999.90;999.90;;;;;;;20.35;100.00;97351.06;5091251;28;20077;-73
2023/07/02 06:01:33;;;;;;;1999.90;999.90;;;;;;;20.42;100.00;97349.22;5090759;28;20101;-72
2023/07/02 06:03:58;;;;;;;1999.90;999.90;;;;;;;20.49;100.00;97357.63;5091231;28;20028;-73
2023/07/02 06:06:24;;;;;;;1999.90;999.90;;;;;;;20.40;100.00;97365.44;5092923;28;20115;-73
2023/07/02 06:08:50;;;;;;;1999.90;999.90;;;;;;;20.42;100.00;97362.28;5092727;28;20039;-71
2023/07/02 06:11:15;;;;;;;1999.90;999.90;;;;;;;20.49;100.00;97356.81;5091139;28;20040;-71
2023/07/02 06:13:41;;;;;;;1999.90;999.90;;;;;;;20.44;100.00;97351.59;5089736;28;20059;-71
2023/07/02 06:16:06;;;;;;;1999.90;999.90;;;;;;;20.26;100.00;97360.47;5091041;28;20547;-72
2023/07/02 06:18:31;;;;;;;1999.90;999.90;;;;;;;20.45;100.00;97364.31;5091070;28;20453;-72
2023/07/02 06:20:57;;;;;;;1999.90;999.90;;;;;;;20.51;100.00;97373.94;5089427;28;20054;-72
2023/07/02 06:23:23;;;;;;;1999.90;999.90;;;;;;;20.57;100.00;97376.03;5090639;28;20053;-72
2023/07/02 06:25:48;;;;;;;1999.90;999.90;;;;;;;20.71;100.00;97372.63;5089678;28;20035;-72
2023/07/02 06:28:13;;;;;;;1999.90;999.90;;;;;;;20.75;100.00;97379.06;5090825;28;20024;-72
2023/07/02 06:30:39;;;;;;;1999.90;999.90;;;;;;;20.76;100.00;97375.91;5090234;28;20039;-71
2023/07/02 06:33:04;;;;;;;1999.90;999.90;;;;;;;21.19;100.00;97373.72;5090581;28;20503;-71
2023/07/02 06:35:29;;;;;;;1999.90;999.90;;;;;;;21.60;100.00;97386.50;5090872;28;20024;-71
2023/07/02 06:37:55;;;;;;;1999.90;999.90;;;;;;;21.78;100.00;97393.06;5089307;28;20480;-72
2023/07/02 06:40:22;;;;;;;1999.90;999.90;;;;;;;21.99;100.00;97395.28;5090391;28;20036;-70
2023/07/02 06:42:47;;;;;;;1999.90;999.90;;;;;;;21.81;100.00;97385.94;5088938;28;20975;-72
2023/07/02 06:45:13;;;;;;;1999.90;999.90;;;;;;;21.86;100.00;97402.31;5090467;28;21364;-72
2023/07/02 06:47:38;;;;;;;1999.90;999.90;;;;;;;21.94;100.00;97392.84;5090276;28;20044;-72
2023/07/02 06:50:04;;;;;;;1999.90;999.90;;;;;;;21.71;100.00;97389.41;5090236;28;20487;-72
2023/07/02 06:52:31;;;;;;;1999.90;999.90;;;;;;;21.46;100.00;97386.34;5090387;28;20113;-72
2023/07/02 06:54:56;;;;;;;1999.90;999.90;;;;;;;21.73;100.00;97387.03;5088948;28;20366;-71
2023/07/02 06:57:23;;;;;;;1999.90;999.90;;;;;;;21.84;100.00;97388.75;5088944;28;20020;-71
2023/07/02 06:59:48;;;;;;;1999.90;999.90;;;;;;;21.99;100.00;97394.50;5090154;28;20122;-70
2023/07/02 07:02:14;;;;;;;1999.90;999.90;;;;;;;21.85;100.00;97395.94;5090134;28;20369;-71
2023/07/02 07:04:39;;;;;;;1999.90;999.90;;;;;;;22.03;100.00;97390.56;5090071;28;20024;-71
2023/07/02 07:07:04;;;;;;;1999.90;999.90;;;;;;;22.43;100.00;97392.47;5089723;28;20042;-71
2023/07/02 07:09:30;;;;;;;1999.90;999.90;;;;;;;22.53;100.00;97388.97;5089959;28;20093;-71
2023/07/02 07:11:55;;;;;;;1999.90;999.90;;;;;;;22.84;100.00;97390.41;5090246;28;20040;-73
2023/07/02 07:14:21;;;;;;;1999.90;999.90;;;;;;;23.25;100.00;97389.03;5089966;28;20027;-73
2023/07/02 07:16:46;;;;;;;1999.90;999.90;;;;;;;23.81;100.00;97393.22;5090531;28;20055;-73
2023/07/02 07:19:12;;;;;;;1999.90;999.90;;;;;;;24.16;100.00;97393.31;5093403;28;20085;-73
2023/07/02 07:21:37;;;;;;;1999.90;999.90;;;;;;;24.71;100.00;97392.91;5083292;28;20033;-73
2023/07/02 07:24:02;;;;;;;1999.90;999.90;;;;;;;24.82;100.00;97393.69;5072101;28;20025;-72
2023/07/02 07:26:28;;;;;;;1999.90;999.90;;;;;;;24.59;100.00;97399.69;5069826;28;20709;-73
2023/07/02 07:28:55;;;;;;;1999.90;999.90;;;;;;;24.68;100.00;97396.50;5069845;28;20157;-73
2023/07/02 07:31:21;;;;;;;1999.90;999.90;;;;;;;24.38;100.00;97386.53;5069874;28;20032;-72
2023/07/02 07:33:46;;;;;;;1999.90;999.90;;;;;;;24.03;100.00;97388.50;5069538;28;20032;-72
2023/07/02 07:36:12;;;;;;;1999.90;999.90;;;;;;;23.22;100.00;97387.00;5070670;28;20031;-73
2023/07/02 07:38:37;;;;;;;1999.90;999.90;;;;;;;22.76;100.00;97391.56;5069949;28;20025;-73
2023/07/02 07:41:03;;;;;;;1999.90;999.90;;;;;;;22.77;100.00;97388.34;5069907;28;20070;-72
2023/07/02 07:43:28;;;;;;;1999.90;999.90;;;;;;;22.68;100.00;97385.13;5073684;28;20150;-72
2023/07/02 07:45:54;;;;;;;1999.90;999.90;;;;;;;22.88;100.00;97388.44;5078686;28;20112;-79
2023/07/02 07:48:21;;;;;;;1999.90;999.90;;;;;;;23.40;100.00;97379.53;5075237;28;20040;-75
2023/07/02 07:50:47;;;;;;;1999.90;999.90;;;;;;;23.93;100.00;97385.25;5074252;28;20036;-74
2023/07/02 07:53:12;;;;;;;1999.90;999.90;;;;;;;24.41;100.00;97388.53;5074318;28;20103;-74
2023/07/02 07:55:37;;;;;;;1999.90;999.90;;;;;;;24.68;100.00;97385.31;5073765;28;20032;-74
2023/07/02 07:58:03;;;;;;;1999.90;999.90;;;;;;;24.95;100.00;97381.69;5075221;28;20027;-75
2023/07/02 08:00:28;;;;;;;1999.90;999.90;;;;;;;24.91;100.00;97382.88;5076256;28;20104;-74
2023/07/02 08:02:55;;;;;;;1999.90;999.90;;;;;;;25.07;100.00;97380.44;5073117;28;20032;-74
2023/07/02 08:05:21;;;;;;;1999.90;999.90;;;;;;;25.19;100.00;97393.19;5073282;28;20033;-75
2023/07/02 08:07:46;;;;;;;1999.90;999.90;;;;;;;25.04;100.00;97393.25;5073434;28;20037;-75
2023/07/02 08:10:12;;;;;;;1999.90;999.90;;;;;;;24.76;100.00;97378.50;5088678;28;20119;-73
2023/07/02 08:12:37;;;;;;;1999.90;999.90;;;;;;;24.64;100.00;97378.91;5091682;28;20031;-74
2023/07/02 08:15:03;;;;;;;1999.90;999.90;;;;;;;24.91;100.00;97383.69;5093501;28;20061;-75
2023/07/02 08:17:30;;;;;;;1999.90;999.90;;;;;;;25.13;100.00;97390.03;5093360;28;20399;-74
2023/07/02 08:19:56;;;;;;;1999.90;999.90;;;;;;;25.76;100.00;97388.16;5093013;28;20008;-74
2023/07/02 08:22:21;;;;;;;1999.90;999.90;;;;;;;26.03;100.00;97392.81;5091085;28;20028;-75
2023/07/02 08:24:49;;;;;;;1999.90;999.90;;;;;;;26.05;100.00;97393.22;5092313;28;20027;-74
2023/07/02 08:27:16;;;;;;;1999.90;999.90;;;;;;;25.75;100.00;97401.38;5093326;28;20020;-73
2023/07/02 08:29:41;;;;;;;1999.90;999.90;;;;;;;25.40;100.00;97388.34;5092921;28;20032;-73
2023/07/02 08:32:07;;;;;;;1999.90;999.90;;;;;;;25.64;100.00;97391.44;5091207;28;20085;-75
2023/07/02 08:34:32;;;;;;;1999.90;999.90;;;;;;;25.69;100.00;97391.00;5092686;28;20028;-75
2023/07/02 08:36:58;;;;;;;1999.90;999.90;;;;;;;25.28;100.00;97397.16;5093278;28;20031;-74
2023/07/02 08:39:23;;;;;;;1999.90;999.90;;;;;;;25.50;100.00;97390.31;5091580;28;20131;-74
2023/07/02 08:41:48;;;;;;;1999.90;999.90;;;;;;;25.92;100.00;97396.88;5092968;28;20491;-73
2023/07/02 08:44:18;;;;;;;1999.90;999.90;;;;;;;26.39;100.00;97401.78;5092673;28;20027;-74
2023/07/02 08:46:44;;;;;;;1999.90;999.90;;;;;;;26.63;100.00;97403.59;5087759;28;20534;-74
2023/07/02 08:49:09;;;;;;;1999.90;999.90;;;;;;;26.92;100.00;97403.34;5092266;28;20036;-73
2023/07/02 08:51:35;;;;;;;1999.90;999.90;;;;;;;25.69;100.00;97388.19;5091698;28;20040;-73
2023/07/02 08:54:01;;;;;;;1999.90;999.90;;;;;;;25.42;100.00;97391.53;5088181;28;20469;-73
2023/07/02 08:56:27;;;;;;;1999.90;999.90;;;;;;;25.53;100.00;97386.69;5091702;28;20036;-73
2023/07/02 08:58:52;;;;;;;1999.90;999.90;;;;;;;25.58;100.00;97390.28;5092375;28;20044;-73
2023/07/02 09:01:19;;;;;;;1999.90;999.90;;;;;;;25.61;100.00;97392.25;5092398;28;20032;-72
2023/07/02 09:03:44;;;;;;;1999.90;999.90;;;;;;;25.30;100.00;97393.97;5092473;28;20024;-72
2023/07/02 09:06:11;;;;;;;1999.90;999.90;;;;;;;25.46;100.00;97392.31;5092776;28;20054;-72
2023/07/02 09:08:37;;;;;;;1999.90;999.90;;;;;;;25.78;100.00;97397.75;5092299;28;20437;-73
2023/07/02 09:11:16;;;;;;;1999.90;999.90;;;;;;;26.03;100.00;97397.63;5092352;28;20024;-73
2023/07/02 09:13:53;;;;;;;1999.90;999.90;;;;;;;26.31;90.33;97399.47;5091815;28;20111;-75
2023/07/02 09:16:25;;;;;;;1999.90;999.90;;;;;;;26.54;80.89;97396.84;5089265;28;20024;-77
2023/07/02 09:19:05;;;;;;;1999.90;999.90;;;;;;;26.30;83.01;97404.28;5096699;28;20048;-77
2023/07/02 09:21:44;;;;;;;1999.90;999.90;;;;;;;26.25;82.14;97392.69;5078801;28;20127;-77
2023/07/02 09:24:18;;;;;;;1999.90;999.90;;;;;;;26.92;76.98;97403.34;5092660;28;20027;-78
2023/07/02 09:26:49;;;;;;;1999.90;999.90;;;;;;;26.78;77.72;97400.66;5108994;28;20081;-79
2023/07/02 09:29:19;;;;;;;1999.90;999.90;;;;;;;26.89;74.25;97392.94;5094032;28;20024;-77
2023/07/02 09:31:51;;;;;;;1999.90;999.90;;;;;;;26.92;74.10;97397.72;5092630;28;20028;-81
2023/07/02 09:34:18;;;;;;;1999.90;999.90;;;;;;;27.38;71.01;97389.56;5095262;28;20066;-77
2023/07/02 09:36:44;;;;;;;1999.90;999.90;;;;;;;27.26;68.29;97387.31;5093773;28;20028;-76
2023/07/02 09:39:19;;;;;;;1999.90;999.90;;;;;;;27.17;68.28;97395.44;5098315;28;20036;-76
2023/07/02 09:41:49;;;;;;;1999.90;999.90;;;;;;;27.44;69.02;97396.34;5096952;28;20020;-77
2023/07/02 09:44:15;;;;;;;1999.90;999.90;;;;;;;27.33;68.84;97392.06;5098201;28;20020;-76
2023/07/02 09:46:45;;;;;;;1999.90;999.90;;;;;;;27.17;69.59;97389.84;5104451;28;20020;-75
2023/07/02 09:49:16;;;;;;;1999.90;999.90;;;;;;;27.47;65.06;97389.13;5091421;28;20613;-74
2023/07/02 09:51:43;;;;;;;1999.90;999.90;;;;;;;27.12;67.46;97390.31;5095776;28;20108;-75
2023/07/02 09:54:08;;;;;;;1999.90;999.90;;;;;;;26.77;65.80;97380.22;5103126;28;20492;-79
2023/07/02 09:56:34;;;;;;;1999.90;999.90;;;;;;;27.43;65.89;97397.59;5102907;28;20036;-78
2023/07/02 09:58:59;;;;;;;1999.90;999.90;;;;;;;27.82;63.77;97390.63;5095828;28;20056;-75
2023/07/02 10:01:25;;;;;;;1999.90;999.90;;;;;;;27.77;59.52;97396.75;5109375;28;20365;-75
2023/07/02 10:03:50;;;;;;;1999.90;999.90;;;;;;;28.23;58.20;97396.09;5098606;28;20020;-76
2023/07/02 10:06:15;;;;;;;1999.90;999.90;;;;;;;28.22;59.17;97398.13;5100895;28;20103;-76
2023/07/02 10:08:52;;;;;;;1999.90;999.90;;;;;;;27.21;57.48;97399.03;5105004;28;20024;-76
2023/07/02 10:11:18;;;;;;;1999.90;999.90;;;;;;;26.83;57.76;97397.41;5092961;28;20055;-74
2023/07/02 10:13:43;;;;;;;1999.90;999.90;;;;;;;27.74;57.59;97397.59;5096887;28;20047;-79
2023/07/02 10:16:08;;;;;;;1999.90;999.90;;;;;;;28.15;57.64;97390.59;5108704;28;20074;-78
2023/07/02 10:18:34;;;;;;;1999.90;999.90;;;;;;;28.38;54.34;97394.69;5109069;28;20061;-76
2023/07/02 10:21:00;;;;;;;1999.90;999.90;;;;;;;28.38;55.96;97387.00;5095877;28;20032;-74
2023/07/02 10:23:35;;;;;;;1999.90;999.90;;;;;;;27.81;54.15;97391.88;5107742;28;20032;-75
2023/07/02 10:26:19;;;;;;;1999.90;999.90;;;;;;;27.45;56.12;97392.34;5098677;28;20038;-78
2023/07/02 10:29:00;;;;;;;1999.90;999.90;;;;;;;28.02;57.24;97385.94;5097417;28;20032;-78
2023/07/02 10:31:26;;;;;;;1999.90;999.90;;;;;;;28.14;55.90;97391.81;5107753;28;20019;-80
2023/07/02 10:33:51;;;;;;;1999.90;999.90;;;;;;;28.41;53.42;97391.78;5097107;28;20388;-79
2023/07/02 10:36:22;;;;;;;1999.90;999.90;;;;;;;28.55;49.09;97397.19;5104339;28;20032;-75
2023/07/02 10:38:49;;;;;;;1999.90;999.90;;;;;;;27.03;53.19;97393.59;5105031;28;20023;-76
2023/07/02 10:41:25;;;;;;;1999.90;999.90;;;;;;;27.36;52.60;97394.03;5095038;28;20035;-80
2023/07/02 10:43:51;;;;;;;1999.90;999.90;;;;;;;27.01;51.92;97390.41;5104896;28;20024;-77